Aviation Digital Data Service (ADDS)

Output produced by METARs form (2043 UTC 27 April 2017)
found at http://aviationweather.gov/adds/metars/
 
KFAY 271720Z 2718/2818 21012KT P6SM SCT045 
     FM280100 21010KT P6SM VCSH BKN050 
     TEMPO 2801/2804 6SM SHRA SCT012 
     FM280400 21006KT P6SM SCT020 
     TEMPO 2808/2812 BKN005